Winburne, Pennsylvania
Current Conditions -  °F | °C
As of 11:54 AM on Saturday 22 Nov 2014 (Local Time) from KFIG Reporting Station
Overcast Overcast  
Wind Chill: 30°   Ceiling: 2200
Heat Index: 30°   Visibility: 10mi
Dew Point: 12°   Wind: 0mph
Humidity: 47%   Direction: NA
Pressure: 30.25"   Gusts: NA
Location:  40.97°N, 78.15°W
Report Text: KFIG 221654Z AUTO 00000KT 10SM OVC022 M01/M11 A3025 RMK AO2 UPB39E49 SLP267 P0000 T10111111
Loading
Personal Weather Stations






























Interactive Weather Map New forecast layout! Learn more

10-Day Weather Forecast

Advertisements
Track Severe Weather on mobile